createdAt,value
2022-07-27T00:02:11.052Z,75.90
2022-07-27T00:04:41.783Z,76.50
2022-07-27T00:07:12.478Z,75.90
2022-07-27T00:09:42.820Z,76.40
2022-07-27T00:12:13.230Z,75.80
2022-07-27T00:14:44.901Z,72.80
2022-07-27T00:17:15.678Z,72.60
2022-07-27T00:19:46.339Z,71.20
2022-07-27T00:22:16.693Z,71.20
2022-07-27T00:24:47.735Z,71.40
2022-07-27T00:27:18.276Z,70.70
2022-07-27T00:29:48.591Z,71.20
2022-07-27T00:32:19.344Z,70.40
2022-07-27T00:34:50.676Z,71.20
2022-07-27T00:37:20.949Z,71.20
2022-07-27T00:39:51.204Z,70.10
2022-07-27T00:42:31.005Z,71.60
2022-07-27T00:45:01.398Z,69.60
2022-07-27T00:47:32.103Z,71.70
2022-07-27T00:50:02.766Z,71.20
2022-07-27T00:52:33.604Z,69.90
2022-07-27T00:55:04.353Z,69.80
2022-07-27T00:57:57.874Z,68.00
2022-07-27T01:00:26.231Z,67.10
2022-07-27T01:02:57.907Z,66.90
2022-07-27T01:05:35.984Z,67.80
2022-07-27T01:08:30.380Z,70.90
2022-07-27T01:11:04.709Z,69.00
2022-07-27T01:13:39.741Z,68.40
2022-07-27T01:16:11.778Z,67.20
2022-07-27T01:18:45.011Z,66.70
2022-07-27T01:21:17.869Z,64.40
2022-07-27T01:23:48.217Z,63.40
2022-07-27T01:26:18.674Z,64.20
2022-07-27T01:28:50.516Z,64.70
2022-07-27T01:31:25.746Z,66.40
2022-07-27T01:33:56.618Z,63.70
2022-07-27T01:36:27.034Z,64.00
2022-07-27T01:38:58.892Z,63.90
2022-07-27T01:41:29.341Z,65.50
2022-07-27T01:44:00.039Z,66.10
2022-07-27T01:46:30.311Z,67.50
2022-07-27T01:49:03.810Z,67.30
2022-07-27T01:51:41.145Z,66.20
2022-07-27T01:54:11.792Z,64.30
2022-07-27T01:56:44.895Z,64.90
2022-07-27T01:59:17.108Z,63.50
2022-07-27T02:01:54.143Z,64.30
2022-07-27T02:04:26.553Z,64.60
2022-07-27T02:06:56.742Z,64.80
2022-07-27T02:09:27.860Z,65.90
2022-07-27T02:15:05.507Z,66.30
2022-07-27T02:17:37.863Z,70.80
2022-07-27T02:20:11.229Z,69.40
2022-07-27T02:22:41.530Z,71.00
2022-07-27T02:25:13.598Z,68.70
2022-07-27T02:27:44.958Z,70.30
2022-07-27T02:30:17.615Z,71.50
2022-07-27T02:32:48.407Z,71.90
2022-07-27T02:35:20.576Z,71.00
2022-07-27T02:37:52.649Z,68.40
2022-07-27T02:40:23.109Z,68.20
2022-07-27T02:42:53.427Z,70.90
2022-07-27T02:45:24.438Z,71.30
2022-07-27T02:47:55.186Z,71.50
2022-07-27T02:50:25.640Z,71.00
2022-07-27T02:52:55.925Z,71.80
2022-07-27T02:55:26.199Z,72.20
2022-07-27T02:57:56.541Z,70.80
2022-07-27T03:00:27.388Z,70.80
2022-07-27T03:02:58.273Z,69.20
2022-07-27T03:05:29.327Z,70.40
2022-07-27T03:07:59.582Z,71.80
2022-07-27T03:10:30.059Z,70.80
2022-07-27T03:13:00.645Z,70.40
2022-07-27T03:15:31.393Z,70.60
2022-07-27T03:18:02.180Z,71.40
2022-07-27T03:20:32.516Z,71.50
2022-07-27T03:23:02.794Z,71.10
2022-07-27T03:25:34.516Z,71.70
2022-07-27T03:28:05.393Z,71.00
2022-07-27T03:30:37.397Z,71.10
2022-07-27T03:33:08.608Z,71.20
2022-07-27T03:35:39.064Z,71.20
2022-07-27T03:38:11.440Z,71.00
2022-07-27T03:40:43.518Z,70.90
2022-07-27T03:43:15.931Z,70.60
2022-07-27T03:45:46.926Z,71.10
2022-07-27T03:48:17.184Z,71.20
2022-07-27T03:50:47.463Z,72.00
2022-07-27T03:53:19.449Z,70.80
2022-07-27T03:55:52.690Z,71.40
2022-07-27T03:58:24.979Z,70.80
2022-07-27T04:00:55.390Z,69.30
2022-07-27T04:03:25.764Z,68.80
2022-07-27T04:05:56.067Z,68.50
2022-07-27T04:08:32.419Z,67.40
2022-07-27T04:11:03.022Z,67.00
2022-07-27T04:13:33.708Z,66.20
2022-07-27T04:16:06.743Z,66.50
2022-07-27T04:18:37.320Z,64.30
2022-07-27T04:21:08.162Z,63.90
2022-07-27T04:23:38.638Z,64.80
2022-07-27T04:26:09.630Z,68.20
2022-07-27T04:28:42.616Z,70.20
2022-07-27T04:31:13.344Z,70.80
2022-07-27T04:33:44.926Z,72.00
2022-07-27T04:36:15.578Z,71.70
2022-07-27T04:38:48.829Z,72.60
2022-07-27T04:41:22.982Z,72.30
2022-07-27T04:44:01.652Z,72.50
2022-07-27T04:46:32.521Z,72.90
2022-07-27T04:49:04.408Z,72.90
2022-07-27T04:51:34.920Z,73.70
2022-07-27T04:54:05.843Z,74.60
2022-07-27T04:56:36.333Z,74.70
2022-07-27T04:59:07.010Z,75.20
2022-07-27T05:01:37.499Z,74.60
2022-07-27T05:04:11.615Z,74.20
2022-07-27T05:06:43.682Z,74.60
2022-07-27T05:09:14.133Z,74.30
2022-07-27T05:11:51.118Z,74.20
2022-07-27T05:14:23.280Z,74.50
2022-07-27T05:16:53.727Z,74.30
2022-07-27T05:19:40.697Z,75.00
2022-07-27T05:22:12.454Z,74.50
2022-07-27T05:24:43.740Z,74.50
2022-07-27T05:27:14.111Z,75.20
2022-07-27T05:29:44.460Z,74.90
2022-07-27T05:32:15.058Z,75.00
2022-07-27T05:34:47.729Z,74.40
2022-07-27T05:37:18.502Z,74.40
2022-07-27T05:39:48.914Z,75.10
2022-07-27T05:42:19.232Z,75.00
2022-07-27T05:44:49.577Z,75.10
2022-07-27T05:47:20.035Z,75.60
2022-07-27T05:49:50.548Z,75.00
2022-07-27T05:52:22.252Z,75.40
2022-07-27T05:54:52.619Z,75.10
2022-07-27T05:57:23.446Z,74.30
2022-07-27T05:59:56.709Z,74.70
2022-07-27T06:02:29.306Z,74.30
2022-07-27T06:05:00.064Z,74.30
2022-07-27T06:07:49.991Z,74.30
2022-07-27T06:10:21.113Z,74.20
2022-07-27T06:12:51.371Z,73.10
2022-07-27T06:15:21.684Z,74.10
2022-07-27T06:17:54.389Z,73.60
2022-07-27T06:20:26.227Z,73.70
2022-07-27T06:23:01.808Z,74.10
2022-07-27T06:25:38.678Z,74.20
2022-07-27T06:28:09.129Z,74.30
2022-07-27T06:30:40.126Z,74.40
2022-07-27T06:33:14.372Z,75.30
2022-07-27T06:35:45.357Z,75.80
2022-07-27T06:38:20.013Z,76.50
2022-07-27T06:40:54.443Z,76.60
2022-07-27T06:43:27.747Z,76.90
2022-07-27T06:46:00.241Z,76.50
2022-07-27T06:48:30.959Z,76.70
2022-07-27T06:51:03.087Z,77.10
2022-07-27T06:53:37.296Z,77.20
2022-07-27T06:56:11.498Z,78.10
2022-07-27T06:58:43.041Z,77.40
2022-07-27T07:01:13.355Z,78.30
2022-07-27T07:03:44.099Z,79.10
2022-07-27T07:06:14.432Z,78.80
2022-07-27T07:08:44.760Z,79.40
2022-07-27T07:11:15.768Z,79.30
2022-07-27T07:14:40.849Z,79.40
2022-07-27T07:17:11.141Z,80.00
2022-07-27T07:19:41.558Z,80.40
2022-07-27T07:22:11.874Z,80.50
2022-07-27T07:24:42.104Z,80.50
2022-07-27T07:27:12.325Z,81.00
2022-07-27T07:29:42.627Z,81.50
2022-07-27T07:32:13.180Z,82.10
2022-07-27T07:34:45.870Z,82.70
2022-07-27T07:37:16.175Z,82.30
2022-07-27T07:39:47.515Z,82.80
2022-07-27T07:42:18.269Z,82.90
2022-07-27T07:44:48.554Z,83.30
2022-07-27T07:47:18.882Z,83.40
2022-07-27T07:49:49.166Z,83.30
2022-07-27T07:52:20.097Z,83.60
2022-07-27T07:54:54.630Z,83.80
2022-07-27T07:57:26.502Z,84.10
2022-07-27T07:59:56.840Z,84.40
2022-07-27T08:02:28.343Z,84.80
2022-07-27T08:05:00.171Z,84.70
2022-07-27T08:07:30.449Z,84.70
2022-07-27T08:10:00.822Z,86.00
2022-07-27T08:12:31.215Z,85.60
2022-07-27T08:15:01.470Z,86.80
2022-07-27T08:17:32.542Z,86.90
2022-07-27T08:20:03.040Z,87.50
2022-07-27T08:22:33.430Z,87.90
2022-07-27T08:25:04.999Z,88.40
2022-07-27T08:27:40.153Z,88.50
2022-07-27T08:30:13.207Z,89.00
2022-07-27T08:32:56.585Z,88.60
2022-07-27T08:35:43.065Z,88.90
2022-07-27T08:38:29.034Z,88.70
2022-07-27T08:41:00.023Z,89.40
2022-07-27T08:43:31.802Z,90.00
2022-07-27T08:46:07.628Z,90.30
2022-07-27T08:48:40.357Z,90.10
2022-07-27T08:54:01.896Z,90.10
2022-07-27T08:56:32.609Z,90.50
2022-07-27T08:59:02.981Z,90.50
2022-07-27T09:01:39.917Z,90.50
2022-07-27T09:06:54.889Z,90.40
2022-07-27T09:09:25.526Z,90.80
2022-07-27T09:12:14.425Z,90.60
2022-07-27T09:14:52.687Z,90.90
2022-07-27T09:17:49.992Z,90.70
2022-07-27T09:20:25.632Z,90.90
2022-07-27T09:23:10.192Z,91.10
2022-07-27T09:28:35.859Z,91.00
2022-07-27T09:34:15.571Z,90.90
2022-07-27T09:37:11.503Z,90.80
2022-07-27T09:39:45.123Z,90.60
2022-07-27T09:45:42.034Z,90.70
2022-07-27T09:48:56.282Z,90.40
2022-07-27T09:51:58.845Z,90.20
2022-07-27T09:54:53.619Z,90.10
2022-07-27T09:57:25.042Z,89.90
2022-07-27T10:00:18.153Z,90.10
2022-07-27T10:03:00.589Z,89.70
2022-07-27T10:05:38.440Z,89.40
2022-07-27T10:08:30.892Z,89.70
2022-07-27T10:11:01.377Z,90.20
2022-07-27T10:13:46.428Z,90.20
2022-07-27T10:16:24.110Z,90.50
2022-07-27T10:19:21.278Z,90.30
2022-07-27T10:21:55.139Z,90.20
2022-07-27T10:24:48.711Z,90.50
2022-07-27T10:27:46.628Z,90.60
2022-07-27T10:30:24.182Z,90.90
2022-07-27T10:33:01.934Z,90.80
2022-07-27T10:35:40.785Z,91.10
2022-07-27T10:38:25.318Z,91.00
2022-07-27T10:41:25.595Z,90.80
2022-07-27T10:44:21.725Z,90.80
2022-07-27T10:47:06.251Z,91.40
2022-07-27T10:49:40.669Z,91.20
2022-07-27T10:52:47.389Z,91.20
2022-07-27T10:55:33.153Z,91.40
2022-07-27T10:58:12.688Z,91.40
2022-07-27T11:00:55.091Z,91.50
2022-07-27T11:03:33.314Z,91.40
2022-07-27T11:06:31.451Z,91.40
2022-07-27T11:09:38.632Z,91.40
2022-07-27T11:11:52.182Z,91.60
2022-07-27T11:14:31.303Z,91.70
2022-07-27T11:17:39.950Z,91.30
2022-07-27T11:20:06.090Z,91.50
2022-07-27T11:25:32.119Z,91.80
2022-07-27T11:28:13.175Z,91.80
2022-07-27T11:30:44.598Z,92.20
2022-07-27T11:33:16.433Z,91.80
2022-07-27T11:36:04.607Z,91.70
2022-07-27T11:38:56.484Z,91.50
2022-07-27T11:42:04.748Z,91.50
2022-07-27T11:44:25.804Z,91.70
2022-07-27T11:47:01.964Z,91.60
2022-07-27T11:49:34.705Z,91.90
2022-07-27T11:52:10.549Z,91.70
2022-07-27T11:54:46.137Z,91.90
2022-07-27T11:57:23.426Z,92.30
2022-07-27T11:59:54.660Z,92.20
2022-07-27T12:02:28.139Z,91.90
2022-07-27T12:05:02.903Z,92.10
2022-07-27T12:07:35.960Z,92.20
2022-07-27T12:10:11.850Z,92.20
2022-07-27T12:12:42.583Z,91.90
2022-07-27T12:15:44.693Z,92.10
2022-07-27T12:18:14.945Z,92.30
2022-07-27T12:20:47.145Z,92.50
2022-07-27T12:23:17.895Z,92.40
2022-07-27T12:25:51.492Z,92.50
2022-07-27T12:28:27.381Z,92.40
2022-07-27T12:30:59.356Z,92.90
2022-07-27T12:33:32.145Z,92.50
2022-07-27T12:36:07.029Z,92.70
2022-07-27T12:38:51.158Z,93.80
2022-07-27T12:41:31.950Z,93.50
2022-07-27T12:47:27.334Z,92.90
2022-07-27T12:50:10.010Z,92.80
2022-07-27T12:52:46.697Z,92.80
2022-07-27T12:55:20.459Z,92.80
2022-07-27T12:57:56.693Z,92.90
2022-07-27T13:00:33.981Z,93.00
2022-07-27T13:03:06.190Z,93.00
2022-07-27T13:05:37.633Z,93.40
2022-07-27T13:08:09.938Z,93.90
2022-07-27T13:10:42.238Z,93.90
2022-07-27T13:13:12.978Z,93.70
2022-07-27T13:15:43.779Z,93.50
2022-07-27T13:18:22.866Z,93.20
2022-07-27T13:20:54.253Z,93.40
2022-07-27T13:23:24.976Z,93.10
2022-07-27T13:25:55.661Z,93.10
2022-07-27T13:28:26.116Z,93.30
2022-07-27T13:30:56.454Z,93.40
2022-07-27T13:33:26.694Z,93.30
2022-07-27T13:36:00.997Z,93.40
2022-07-27T13:38:35.222Z,93.30
2022-07-27T13:41:05.700Z,93.20
2022-07-27T13:43:36.561Z,93.10
2022-07-27T13:46:10.177Z,93.20
2022-07-27T13:48:40.612Z,93.80
2022-07-27T13:51:10.947Z,93.30
2022-07-27T13:53:41.200Z,93.10
2022-07-27T13:56:11.795Z,93.30
2022-07-27T13:58:43.233Z,94.00
2022-07-27T14:30:44.049Z,94.20
2022-07-27T14:36:57.550Z,93.90
2022-07-27T14:39:43.951Z,94.10
2022-07-27T14:54:37.502Z,95.30
2022-07-27T14:57:26.731Z,96.00
2022-07-27T14:59:57.563Z,95.50
2022-07-27T15:02:28.320Z,95.40
2022-07-27T15:04:58.921Z,95.50
2022-07-27T15:07:32.534Z,95.40
2022-07-27T15:10:04.098Z,95.00
2022-07-27T15:12:38.122Z,94.70
2022-07-27T15:15:14.596Z,94.50
2022-07-27T15:17:45.203Z,94.30
2022-07-27T15:20:15.605Z,94.20
2022-07-27T15:22:46.319Z,94.20
2022-07-27T15:25:16.654Z,94.30
2022-07-27T15:27:47.323Z,95.10
2022-07-27T15:30:18.191Z,95.20
2022-07-27T15:32:48.993Z,95.00
2022-07-27T15:35:19.318Z,95.10
2022-07-27T15:37:54.743Z,95.00
2022-07-27T15:40:44.267Z,94.90
2022-07-27T15:43:20.737Z,94.80
2022-07-27T15:45:52.903Z,95.20
2022-07-27T15:48:25.653Z,95.00
2022-07-27T15:51:03.659Z,94.90
2022-07-27T15:56:47.256Z,95.10
2022-07-27T15:59:27.435Z,95.10
2022-07-27T16:01:57.930Z,95.60
2022-07-27T16:04:28.907Z,96.00
2022-07-27T16:09:46.977Z,96.70
2022-07-27T16:12:18.149Z,96.30
2022-07-27T16:14:51.555Z,96.00
2022-07-27T16:17:23.009Z,95.70
2022-07-27T16:19:59.484Z,95.90
2022-07-27T16:22:31.135Z,95.60
2022-07-27T16:25:02.079Z,95.50
2022-07-27T16:27:32.418Z,95.90
2022-07-27T16:30:02.707Z,96.20
2022-07-27T16:32:33.966Z,96.50
2022-07-27T16:35:10.061Z,96.90
2022-07-27T16:37:40.900Z,97.00
2022-07-27T16:40:11.790Z,97.20
2022-07-27T16:42:42.038Z,97.20
2022-07-27T16:45:14.224Z,97.00
2022-07-27T16:47:45.487Z,96.90
2022-07-27T16:50:15.867Z,97.30
2022-07-27T16:52:46.840Z,97.00
2022-07-27T16:55:17.608Z,96.80
2022-07-27T16:57:47.902Z,96.60
2022-07-27T17:00:18.772Z,96.30
2022-07-27T17:02:51.811Z,96.10
2022-07-27T17:05:22.549Z,95.90
2022-07-27T17:07:54.046Z,95.80
2022-07-27T17:10:27.162Z,95.70
2022-07-27T17:13:00.070Z,95.60
2022-07-27T17:15:36.842Z,96.00
2022-07-27T17:18:10.680Z,95.50
2022-07-27T17:20:45.203Z,95.50
2022-07-27T17:23:25.450Z,95.20
2022-07-27T17:25:57.895Z,95.40
2022-07-27T18:48:15.694Z,97.90
2022-07-27T18:50:46.561Z,97.30
2022-07-27T18:53:16.815Z,96.80
2022-07-27T21:27:46.236Z,97.00
2022-07-27T22:26:38.548Z,98.70
2022-07-27T22:29:25.403Z,98.50
2022-07-27T22:31:55.679Z,98.80
2022-07-27T22:34:26.400Z,98.60
2022-07-27T22:36:56.973Z,98.20
2022-07-27T22:39:27.233Z,97.90
2022-07-27T22:41:57.640Z,97.80
2022-07-27T22:44:30.550Z,97.70
2022-07-27T22:47:00.905Z,97.90
2022-07-27T22:49:31.559Z,97.00
2022-07-27T22:52:01.883Z,96.80
2022-07-27T22:54:35.368Z,96.30
2022-07-27T22:57:06.420Z,96.80
2022-07-27T22:59:39.165Z,96.90
2022-07-27T23:02:12.391Z,96.60
2022-07-27T23:04:43.093Z,96.00
2022-07-27T23:07:17.407Z,96.10
2022-07-27T23:09:47.749Z,96.10
2022-07-27T23:12:19.146Z,96.40
2022-07-27T23:14:50.029Z,96.60
2022-07-27T23:17:20.421Z,96.00
2022-07-27T23:19:51.329Z,96.20
2022-07-27T23:22:22.905Z,96.20
2022-07-27T23:24:57.298Z,95.60
2022-07-27T23:27:27.588Z,95.70
2022-07-27T23:29:58.475Z,95.10
2022-07-27T23:32:28.866Z,94.70
2022-07-27T23:34:59.218Z,95.00
2022-07-27T23:37:29.474Z,94.50
2022-07-27T23:39:59.725Z,94.20
2022-07-27T23:42:33.281Z,93.80
2022-07-27T23:45:04.209Z,93.60
2022-07-27T23:47:35.054Z,94.00
2022-07-27T23:50:06.626Z,93.30
2022-07-27T23:52:38.867Z,93.20
2022-07-27T23:55:10.385Z,93.00
2022-07-27T23:57:41.140Z,92.40
